sensor_id;sensor_type;location;lat;lon;timestamp;P1;durP1;ratioP1;P2;durP2;ratioP2
32146;SDS011;32190;49.112;8.598;2022-09-12T00:03:08;1.23;;;1.23;;
32146;SDS011;32190;49.112;8.598;2022-09-12T00:09:00;1.63;;;1.50;;
32146;SDS011;32190;49.112;8.598;2022-09-12T00:14:52;1.13;;;1.13;;
32146;SDS011;32190;49.112;8.598;2022-09-12T00:20:44;1.65;;;1.50;;
32146;SDS011;32190;49.112;8.598;2022-09-12T00:26:36;1.50;;;1.40;;
32146;SDS011;32190;49.112;8.598;2022-09-12T00:32:26;1.40;;;1.30;;
32146;SDS011;32190;49.112;8.598;2022-09-12T00:38:17;1.10;;;1.10;;
32146;SDS011;32190;49.112;8.598;2022-09-12T00:50:08;1.77;;;1.70;;
32146;SDS011;32190;49.112;8.598;2022-09-12T00:56:02;1.17;;;1.15;;
32146;SDS011;32190;49.112;8.598;2022-09-12T01:01:53;1.23;;;1.08;;
32146;SDS011;32190;49.112;8.598;2022-09-12T01:07:44;1.08;;;1.05;;
32146;SDS011;32190;49.112;8.598;2022-09-12T01:13:37;1.70;;;1.60;;
32146;SDS011;32190;49.112;8.598;2022-09-12T01:31:48;1.92;;;1.83;;
32146;SDS011;32190;49.112;8.598;2022-09-12T01:50:24;2.67;;;1.52;;
32146;SDS011;32190;49.112;8.598;2022-09-12T01:56:20;2.00;;;1.90;;
32146;SDS011;32190;49.112;8.598;2022-09-12T02:08:21;1.27;;;1.27;;
32146;SDS011;32190;49.112;8.598;2022-09-12T02:14:20;1.80;;;1.70;;
32146;SDS011;32190;49.112;8.598;2022-09-12T02:20:15;1.90;;;1.58;;
32146;SDS011;32190;49.112;8.598;2022-09-12T02:26:11;2.03;;;1.92;;
32146;SDS011;32190;49.112;8.598;2022-09-12T02:32:13;4.32;;;2.47;;
32146;SDS011;32190;49.112;8.598;2022-09-12T02:38:32;1.95;;;1.85;;
32146;SDS011;32190;49.112;8.598;2022-09-12T02:44:30;1.55;;;1.45;;
32146;SDS011;32190;49.112;8.598;2022-09-12T02:50:22;1.42;;;1.33;;
32146;SDS011;32190;49.112;8.598;2022-09-12T02:56:16;1.17;;;1.17;;
32146;SDS011;32190;49.112;8.598;2022-09-12T03:14:06;1.58;;;1.48;;
32146;SDS011;32190;49.112;8.598;2022-09-12T03:20:28;1.77;;;1.67;;
32146;SDS011;32190;49.112;8.598;2022-09-12T03:26:38;2.03;;;1.92;;
32146;SDS011;32190;49.112;8.598;2022-09-12T03:33:03;1.80;;;1.70;;
32146;SDS011;32190;49.112;8.598;2022-09-12T03:38:53;2.65;;;2.13;;
32146;SDS011;32190;49.112;8.598;2022-09-12T03:44:44;2.65;;;2.45;;
32146;SDS011;32190;49.112;8.598;2022-09-12T03:50:34;2.10;;;1.88;;
32146;SDS011;32190;49.112;8.598;2022-09-12T03:56:25;2.30;;;1.90;;
32146;SDS011;32190;49.112;8.598;2022-09-12T04:02:16;1.85;;;1.75;;
32146;SDS011;32190;49.112;8.598;2022-09-12T04:08:06;1.80;;;1.70;;
32146;SDS011;32190;49.112;8.598;2022-09-12T04:13:57;1.80;;;1.65;;
32146;SDS011;32190;49.112;8.598;2022-09-12T04:19:47;2.20;;;2.00;;
32146;SDS011;32190;49.112;8.598;2022-09-12T04:25:38;1.80;;;1.70;;
32146;SDS011;32190;49.112;8.598;2022-09-12T04:31:28;1.60;;;1.50;;
32146;SDS011;32190;49.112;8.598;2022-09-12T04:37:19;1.92;;;1.77;;
32146;SDS011;32190;49.112;8.598;2022-09-12T04:43:11;2.20;;;2.00;;
32146;SDS011;32190;49.112;8.598;2022-09-12T04:49:02;1.70;;;1.60;;
32146;SDS011;32190;49.112;8.598;2022-09-12T04:54:52;2.20;;;2.10;;
32146;SDS011;32190;49.112;8.598;2022-09-12T05:00:43;2.45;;;2.28;;
32146;SDS011;32190;49.112;8.598;2022-09-12T05:06:34;2.20;;;2.00;;
32146;SDS011;32190;49.112;8.598;2022-09-12T05:12:26;2.85;;;2.65;;
32146;SDS011;32190;49.112;8.598;2022-09-12T05:18:16;2.80;;;2.35;;
32146;SDS011;32190;49.112;8.598;2022-09-12T05:24:08;2.15;;;2.05;;
32146;SDS011;32190;49.112;8.598;2022-09-12T05:30:00;3.15;;;2.40;;
32146;SDS011;32190;49.112;8.598;2022-09-12T05:35:50;2.03;;;1.92;;
32146;SDS011;32190;49.112;8.598;2022-09-12T05:41:41;2.05;;;1.75;;
32146;SDS011;32190;49.112;8.598;2022-09-12T05:47:32;2.00;;;1.80;;
32146;SDS011;32190;49.112;8.598;2022-09-12T05:53:22;2.13;;;2.03;;
32146;SDS011;32190;49.112;8.598;2022-09-12T05:59:18;3.53;;;2.88;;
32146;SDS011;32190;49.112;8.598;2022-09-12T06:05:10;2.28;;;2.08;;
32146;SDS011;32190;49.112;8.598;2022-09-12T06:11:02;2.38;;;2.17;;
32146;SDS011;32190;49.112;8.598;2022-09-12T06:16:54;2.80;;;2.28;;
32146;SDS011;32190;49.112;8.598;2022-09-12T06:22:44;2.53;;;2.40;;
32146;SDS011;32190;49.112;8.598;2022-09-12T06:28:38;2.15;;;2.05;;
32146;SDS011;32190;49.112;8.598;2022-09-12T06:34:31;2.65;;;2.45;;
32146;SDS011;32190;49.112;8.598;2022-09-12T06:40:22;2.47;;;1.70;;
32146;SDS011;32190;49.112;8.598;2022-09-12T06:46:13;1.85;;;1.75;;
32146;SDS011;32190;49.112;8.598;2022-09-12T06:52:04;2.67;;;2.47;;
32146;SDS011;32190;49.112;8.598;2022-09-12T06:57:56;2.58;;;2.38;;
32146;SDS011;32190;49.112;8.598;2022-09-12T07:03:53;3.40;;;1.80;;
32146;SDS011;32190;49.112;8.598;2022-09-12T07:09:48;2.20;;;2.10;;
32146;SDS011;32190;49.112;8.598;2022-09-12T07:15:39;1.80;;;1.70;;
32146;SDS011;32190;49.112;8.598;2022-09-12T07:21:30;2.97;;;1.98;;
32146;SDS011;32190;49.112;8.598;2022-09-12T07:27:20;2.90;;;2.17;;
32146;SDS011;32190;49.112;8.598;2022-09-12T07:33:11;2.10;;;1.95;;
32146;SDS011;32190;49.112;8.598;2022-09-12T07:39:02;1.90;;;1.80;;
32146;SDS011;32190;49.112;8.598;2022-09-12T07:44:53;2.65;;;2.45;;
32146;SDS011;32190;49.112;8.598;2022-09-12T07:50:43;2.58;;;1.80;;
32146;SDS011;32190;49.112;8.598;2022-09-12T07:56:34;2.35;;;2.17;;
32146;SDS011;32190;49.112;8.598;2022-09-12T08:02:24;2.40;;;2.20;;
32146;SDS011;32190;49.112;8.598;2022-09-12T08:08:15;2.20;;;2.00;;
32146;SDS011;32190;49.112;8.598;2022-09-12T08:14:05;1.67;;;1.58;;
32146;SDS011;32190;49.112;8.598;2022-09-12T08:19:56;1.50;;;1.40;;
32146;SDS011;32190;49.112;8.598;2022-09-12T08:25:46;2.00;;;1.90;;
32146;SDS011;32190;49.112;8.598;2022-09-12T08:31:37;1.70;;;1.60;;
32146;SDS011;32190;49.112;8.598;2022-09-12T08:37:30;1.15;;;1.15;;
32146;SDS011;32190;49.112;8.598;2022-09-12T08:49:24;1.60;;;1.50;;
32146;SDS011;32190;49.112;8.598;2022-09-12T08:55:24;2.70;;;1.98;;
32146;SDS011;32190;49.112;8.598;2022-09-12T09:07:27;0.95;;;0.95;;
32146;SDS011;32190;49.112;8.598;2022-09-12T09:20:02;1.13;;;1.13;;
32146;SDS011;32190;49.112;8.598;2022-09-12T09:26:55;1.40;;;1.30;;
32146;SDS011;32190;49.112;8.598;2022-09-12T09:32:34;1.23;;;1.13;;
32146;SDS011;32190;49.112;8.598;2022-09-12T09:44:55;1.00;;;1.00;;
32146;SDS011;32190;49.112;8.598;2022-09-12T09:50:49;1.73;;;1.15;;
32146;SDS011;32190;49.112;8.598;2022-09-12T09:56:40;1.25;;;1.08;;
32146;SDS011;32190;49.112;8.598;2022-09-12T10:02:31;1.70;;;1.60;;
32146;SDS011;32190;49.112;8.598;2022-09-12T10:08:23;2.15;;;1.30;;
32146;SDS011;32190;49.112;8.598;2022-09-12T10:14:48;1.42;;;1.33;;
32146;SDS011;32190;49.112;8.598;2022-09-12T10:20:42;1.10;;;1.10;;
32146;SDS011;32190;49.112;8.598;2022-09-12T10:26:35;1.27;;;1.17;;
32146;SDS011;32190;49.112;8.598;2022-09-12T10:32:38;1.25;;;1.05;;
32146;SDS011;32190;49.112;8.598;2022-09-12T10:38:32;0.90;;;0.90;;
32146;SDS011;32190;49.112;8.598;2022-09-12T10:44:25;1.08;;;1.08;;
32146;SDS011;32190;49.112;8.598;2022-09-12T10:50:22;0.80;;;0.80;;
32146;SDS011;32190;49.112;8.598;2022-09-12T10:56:13;1.00;;;1.00;;
32146;SDS011;32190;49.112;8.598;2022-09-12T11:14:37;0.90;;;0.90;;
32146;SDS011;32190;49.112;8.598;2022-09-12T11:27:25;1.20;;;1.13;;
32146;SDS011;32190;49.112;8.598;2022-09-12T11:33:23;0.82;;;0.82;;
32146;SDS011;32190;49.112;8.598;2022-09-12T11:39:39;0.80;;;0.80;;
32146;SDS011;32190;49.112;8.598;2022-09-12T11:45:38;0.80;;;0.80;;
32146;SDS011;32190;49.112;8.598;2022-09-12T11:51:33;0.90;;;0.90;;
32146;SDS011;32190;49.112;8.598;2022-09-12T12:09:17;0.60;;;0.55;;
32146;SDS011;32190;49.112;8.598;2022-09-12T12:15:12;0.80;;;0.80;;
32146;SDS011;32190;49.112;8.598;2022-09-12T12:27:50;0.60;;;0.60;;
32146;SDS011;32190;49.112;8.598;2022-09-12T12:45:57;0.73;;;0.73;;
32146;SDS011;32190;49.112;8.598;2022-09-12T12:51:54;0.82;;;0.80;;
32146;SDS011;32190;49.112;8.598;2022-09-12T12:57:48;0.65;;;0.65;;
32146;SDS011;32190;49.112;8.598;2022-09-12T13:03:41;0.40;;;0.40;;
32146;SDS011;32190;49.112;8.598;2022-09-12T13:09:42;0.93;;;0.75;;
32146;SDS011;32190;49.112;8.598;2022-09-12T13:21:26;0.70;;;0.70;;
32146;SDS011;32190;49.112;8.598;2022-09-12T13:27:18;0.60;;;0.60;;
32146;SDS011;32190;49.112;8.598;2022-09-12T13:33:26;0.35;;;0.35;;
32146;SDS011;32190;49.112;8.598;2022-09-12T13:45:48;0.38;;;0.38;;
32146;SDS011;32190;49.112;8.598;2022-09-12T13:51:39;0.60;;;0.60;;
32146;SDS011;32190;49.112;8.598;2022-09-12T13:57:32;0.52;;;0.52;;
32146;SDS011;32190;49.112;8.598;2022-09-12T14:03:30;0.40;;;0.40;;
32146;SDS011;32190;49.112;8.598;2022-09-12T14:09:43;0.52;;;0.52;;
32146;SDS011;32190;49.112;8.598;2022-09-12T14:15:36;0.45;;;0.45;;
32146;SDS011;32190;49.112;8.598;2022-09-12T14:27:22;0.73;;;0.57;;
32146;SDS011;32190;49.112;8.598;2022-09-12T14:33:19;0.40;;;0.40;;
32146;SDS011;32190;49.112;8.598;2022-09-12T14:39:29;0.60;;;0.60;;
32146;SDS011;32190;49.112;8.598;2022-09-12T14:45:28;0.50;;;0.50;;
32146;SDS011;32190;49.112;8.598;2022-09-12T14:57:41;0.50;;;0.50;;
32146;SDS011;32190;49.112;8.598;2022-09-12T15:03:32;0.38;;;0.38;;
32146;SDS011;32190;49.112;8.598;2022-09-12T15:22:51;0.40;;;0.40;;
32146;SDS011;32190;49.112;8.598;2022-09-12T16:36:10;0.30;;;0.30;;
32146;SDS011;32190;49.112;8.598;2022-09-12T16:42:05;0.50;;;0.50;;
32146;SDS011;32190;49.112;8.598;2022-09-12T16:48:09;0.77;;;0.60;;
32146;SDS011;32190;49.112;8.598;2022-09-12T16:54:00;0.45;;;0.40;;
32146;SDS011;32190;49.112;8.598;2022-09-12T17:00:13;0.47;;;0.30;;
32146;SDS011;32190;49.112;8.598;2022-09-12T17:47:25;0.35;;;0.35;;
32146;SDS011;32190;49.112;8.598;2022-09-12T18:00:08;0.40;;;0.40;;
32146;SDS011;32190;49.112;8.598;2022-09-12T18:06:09;1.00;;;0.50;;
32146;SDS011;32190;49.112;8.598;2022-09-12T18:12:03;0.30;;;0.30;;
32146;SDS011;32190;49.112;8.598;2022-09-12T18:17:57;1.73;;;0.32;;
32146;SDS011;32190;49.112;8.598;2022-09-12T18:23:57;0.30;;;0.30;;
32146;SDS011;32190;49.112;8.598;2022-09-12T18:29:48;0.52;;;0.52;;
32146;SDS011;32190;49.112;8.598;2022-09-12T18:35:42;0.32;;;0.32;;
32146;SDS011;32190;49.112;8.598;2022-09-12T18:41:52;2.25;;;0.50;;
32146;SDS011;32190;49.112;8.598;2022-09-12T18:47:43;2.35;;;0.73;;
32146;SDS011;32190;49.112;8.598;2022-09-12T18:53:37;0.60;;;0.60;;
32146;SDS011;32190;49.112;8.598;2022-09-12T18:59:36;0.55;;;0.55;;
32146;SDS011;32190;49.112;8.598;2022-09-12T19:49:40;0.50;;;0.50;;
32146;SDS011;32190;49.112;8.598;2022-09-12T19:56:04;0.40;;;0.40;;
32146;SDS011;32190;49.112;8.598;2022-09-12T20:01:56;1.67;;;0.45;;
32146;SDS011;32190;49.112;8.598;2022-09-12T20:14:16;0.50;;;0.50;;
32146;SDS011;32190;49.112;8.598;2022-09-12T20:32:04;0.30;;;0.30;;
32146;SDS011;32190;49.112;8.598;2022-09-12T20:38:28;0.70;;;0.70;;
32146;SDS011;32190;49.112;8.598;2022-09-12T20:44:39;0.40;;;0.40;;
32146;SDS011;32190;49.112;8.598;2022-09-12T20:50:32;0.40;;;0.32;;
32146;SDS011;32190;49.112;8.598;2022-09-12T20:57:24;0.50;;;0.50;;
32146;SDS011;32190;49.112;8.598;2022-09-12T21:09:54;0.40;;;0.40;;
32146;SDS011;32190;49.112;8.598;2022-09-12T21:16:18;0.40;;;0.40;;
32146;SDS011;32190;49.112;8.598;2022-09-12T21:22:35;0.40;;;0.40;;
32146;SDS011;32190;49.112;8.598;2022-09-12T21:28:54;0.80;;;0.55;;
32146;SDS011;32190;49.112;8.598;2022-09-12T21:35:10;0.40;;;0.40;;
32146;SDS011;32190;49.112;8.598;2022-09-12T21:54:03;0.60;;;0.60;;
32146;SDS011;32190;49.112;8.598;2022-09-12T21:59:56;0.55;;;0.43;;
32146;SDS011;32190;49.112;8.598;2022-09-12T22:13:22;0.60;;;0.60;;
32146;SDS011;32190;49.112;8.598;2022-09-12T22:19:24;0.55;;;0.55;;
32146;SDS011;32190;49.112;8.598;2022-09-12T22:39:13;0.30;;;0.30;;
32146;SDS011;32190;49.112;8.598;2022-09-12T22:58:31;0.90;;;0.60;;
32146;SDS011;32190;49.112;8.598;2022-09-12T23:11:14;0.65;;;0.65;;
32146;SDS011;32190;49.112;8.598;2022-09-12T23:17:11;0.47;;;0.47;;
32146;SDS011;32190;49.112;8.598;2022-09-12T23:23:10;0.75;;;0.75;;
32146;SDS011;32190;49.112;8.598;2022-09-12T23:29:34;0.45;;;0.45;;
32146;SDS011;32190;49.112;8.598;2022-09-12T23:36:07;0.85;;;0.60;;
32146;SDS011;32190;49.112;8.598;2022-09-12T23:42:21;1.02;;;0.50;;
32146;SDS011;32190;49.112;8.598;2022-09-12T23:48:31;0.70;;;0.70;;
32146;SDS011;32190;49.112;8.598;2022-09-12T23:54:32;0.50;;;0.50;;
